• Join FlightAware (Why Join?)
  • Login
  • US Flag 
04:42AM EDT


 

Airport Tracker/Info


-or-


 

Live Flight TrackerFlight Track Log ✈ SPK1112 ✈ 20-Aug-2013 ✈ KVLD - KGSO

Flight Track Log - Related Links

Times and Time Zones

All times are in EDT time to prevent confusion due to time zone crossing. See the SPK1112 flight status page for this flight to view local times or setup timezone preferences in your user account.

Time Position Orientation Groundspeed Altitude Reporting Facility
EDT Latitude Longitude Course Direction KTS MPH feet Rate Location/Type
11:00PM 30.7900 -83.2794 31° Northeast 150 173 700  Level Jacksonville Center
11:01PM 30.8172 -83.2869 347° North 179 206 1,700 2,280 Climbing Jacksonville Center
11:02PM 30.8756 -83.3064 344° North 215 247 4,200 2,580 Climbing Jacksonville Center
11:03PM 30.9339 -83.2994 North 206 237 7,000 2,460 Climbing Jacksonville Center
11:04PM 30.9883 -83.2803 17° North 210 242 9,300 2,040 Climbing Jacksonville Center
11:05PM 31.0428 -83.2344 36° Northeast 233 268 11,200 1,800 Climbing Jacksonville Center
11:06PM 30.7851 -83.2736 31° Northeast  Level FlightAware Approximate
11:06PM 31.0867 -83.1814 46° Northeast 247 284 13,000  Level Jacksonville Center
11:07PM 31.1475 -83.0844 54° Northeast 264 304 15,400 1,620 Climbing Jacksonville Center
11:08PM 31.1936 -83.0261 47° Northeast 264 304 17,100 1,500 Climbing Jacksonville Center
11:09PM 31.2375 -82.9581 53° Northeast 254 292 18,500 1,440 Climbing Jacksonville Center
11:10PM 31.2833 -82.8950 50° Northeast 254 292 20,000 1,620 Climbing Jacksonville Center
11:11PM 31.3356 -82.8197 51° Northeast 259 298 21,800 1,620 Climbing Jacksonville Center
11:12PM 31.3772 -82.7539 53° Northeast 254 292 23,300 1,500 Climbing Jacksonville Center
11:13PM 31.4211 -82.6856 53° Northeast 254 292 24,800 1,500 Climbing Jacksonville Center
11:14PM 31.4625 -82.6247 51° Northeast 249 287 26,300 1,260 Climbing Jacksonville Center
11:15PM 31.5042 -82.5564 54° Northeast 249 287 27,400 1,020 Climbing Jacksonville Center
11:16PM 31.5564 -82.4953 45° Northeast 249 287 28,400 900 Climbing Jacksonville Center
11:17PM 31.6292 -82.4583 23° Northeast 260 299 29,300 900 Climbing Jacksonville Center
11:18PM 31.7000 -82.4214 24° Northeast 260 299 30,200 900 Climbing Jacksonville Center
11:19PM 31.7750 -82.3819 24° Northeast 273 314 31,200 900 Climbing Jacksonville Center
11:20PM 31.8481 -82.3422 25° Northeast 279 321 32,100 840 Climbing Jacksonville Center
11:21PM 31.9147 -82.3053 25° Northeast 274 315 32,900 420 Climbing Jacksonville Center
11:22PM 31.9856 -82.2681 24° Northeast 287 330 33,000 180 Climbing Jacksonville Center
11:23PM 32.0728 -82.2233 23° Northeast 307 353 33,300 480 Climbing Jacksonville Center
11:24PM 32.1436 -82.1858 24° Northeast 312 359 34,000 720 Climbing Jacksonville Center
11:25PM 32.2311 -82.1386 25° Northeast 312 359 34,800 420 Climbing Jacksonville Center
11:27PM 32.3122 -82.0961 24° Northeast 314 361 35,000 60 Climbing Jacksonville Center
11:28PM 32.4100 -82.0436 24° Northeast 314 361 35,000  Level Jacksonville Center
11:29PM 32.4953 -81.9983 24° Northeast 320 368 35,000  Level Jacksonville Center
11:30PM 32.5744 -81.9533 26° Northeast 335 386 35,000  Level Jacksonville Center
11:31PM 32.6700 -81.9006 25° Northeast 340 391 35,000  Level Jacksonville Center
11:32PM 32.7592 -81.8475 27° Northeast 340 391 35,000  Level Jacksonville Center
11:33PM 32.8467 -81.7997 25° Northeast 340 391 35,000  Level Jacksonville Center
11:34PM 32.9381 -81.7514 24° Northeast 345 397 35,000  Level Jacksonville Center
11:35PM 33.0253 -81.7008 26° Northeast 345 397 35,000  Level Jacksonville Center
11:36PM 33.1167 -81.6575 22° Northeast 345 397 35,000  Level Jacksonville Center
11:37PM 33.2039 -81.6092 25° Northeast 345 397 35,000  Level Jacksonville Center
11:38PM 33.2972 -81.5531 27° Northeast 350 403 35,000  Level Jacksonville Center
11:39PM 33.3842 -81.5044 25° Northeast 350 403 35,000  Level Jacksonville Center
11:40PM 33.4775 -81.4533 25° Northeast 355 409 35,000  Level Jacksonville Center
11:41PM 33.5667 -81.4019 26° Northeast 355 409 35,000  Level Jacksonville Center
11:42PM 33.6600 -81.3531 24° Northeast 355 409 35,000  Level Jacksonville Center
11:43PM 33.7514 -81.3039 24° Northeast 355 409 35,000  Level Jacksonville Center
11:44PM 33.8361 -81.2525 27° Northeast 360 414 35,000  Level Jacksonville Center
11:45PM 33.9272 -81.2031 24° Northeast 360 414 35,000  Level Jacksonville Center
11:46PM 34.0206 -81.1511 25° Northeast 360 414 35,000 -360 Level Jacksonville Center
11:47PM 34.1136 -81.0992 25° Northeast 360 414 34,300 -840 Descending Jacksonville Center
11:48PM 34.2108 -81.0419 26° Northeast 360 414 33,400 -1,200 Descending Jacksonville Center
11:49PM 34.3875 -80.9428 25° Northeast 383 441 31,200 -1,320 Descending Atlanta Center
11:50PM 34.4864 -80.8886 24° Northeast 395 455 29,900 -1,560 Descending Atlanta Center
11:51PM 34.5892 -80.8294 25° Northeast 400 460 28,100 -1,740 Descending Atlanta Center
11:52PM 34.6817 -80.7778 25° Northeast 395 455 26,500 -1,740 Descending Atlanta Center
11:53PM 34.7761 -80.7183 27° Northeast 390 449 24,600 -1,920 Descending Atlanta Center
11:54PM 34.8686 -80.6667 25° Northeast 372 428 22,700 -1,920 Descending Atlanta Center
11:55PM 34.9631 -80.6097 26° Northeast 372 428 20,800 -1,860 Descending Atlanta Center
11:56PM 35.0514 -80.5628 24° Northeast 354 407 19,000 -1,620 Descending Atlanta Center
11:57PM 35.1375 -80.5111 26° Northeast 349 402 17,700 -1,440 Descending Atlanta Center
11:58PM 35.2217 -80.4617 26° Northeast 335 386 16,100 -1,560 Descending Atlanta Center
11:59PM 35.3058 -80.4097 27° Northeast 335 386 14,600 -1,440 Descending Atlanta Center
12:00AM 35.3900 -80.3653 23° Northeast 335 386 13,300 -1,320 Descending Atlanta Center
12:01AM 35.4781 -80.3128 26° Northeast 335 386 12,000 -1,200 Descending Atlanta Center
12:02AM 35.5581 -80.2658 26° Northeast 325 374 11,000 -720 Descending Atlanta Center
12:03AM 35.6358 -80.2214 25° Northeast 311 358 10,600 -1,020 Descending Atlanta Center
12:04AM 35.7114 -80.1642 32° Northeast 311 358 9,000 -1,560 Descending Atlanta Center
12:05AM 35.7872 -80.1272 22° Northeast 305 351 7,600 -1,500 Descending Atlanta Center
12:06AM 35.8653 -80.0850 24° Northeast 300 345 6,100 -1,500 Descending Atlanta Center
12:07AM 35.9331 -80.0561 19° North 289 333 4,700 -1,500 Descending Atlanta Center
12:08AM 36.0050 -80.0192 23° Northeast 289 333 3,100 -1,620 Descending Atlanta Center
12:10AM 36.0859 -79.9404 22° Northeast  Level FlightAware Approximate
12:17AM 36.1000 -79.9333 22° Northeast  Level FlightAware Approximate
12:18AM 36.1013 -79.9411 22° Northeast  Level Estimated
12:19AM 36.1000 -79.9333 22° Northeast  Level FlightAware Approximate